Tokiwa — JD4137 — position and weather

sailwx.info

Track history (hours):
 
Tides and Currents Weather Stations Pressure Air Temp Water Temp Dewpoint Dewpoint Depression Visibility Wind Speed Wind Dir Waves Ship Positions

Tokiwa

Last reported at 2017-Dec-15 19:30 UTC. Time now 2017-Dec-15 19:49 UTC.
Position N 33°38' E 130°20'.

Length 78 m; draft 3.3 m.

Type: Cargo ship. MMSI: 431009243.

Date/timePositionNaut miles runAvg speedWind from/ knotsBaromVisibWave heightAir tempDewpointWater temp
2017-Dec-15 19:30N 33°38' E 130°20'0 0.0
2017-Dec-15 19:01N 33°38' E 130°20'0 0.0
2017-Dec-15 18:30N 33°38' E 130°20'0 0.0
2017-Dec-15 18:00N 33°38' E 130°20'0 0.0
2017-Dec-15 17:30N 33°38' E 130°20'0 0.0
2017-Dec-15 17:00N 33°38' E 130°20'0 0.0
2017-Dec-15 16:30N 33°38' E 130°20'0 0.0
2017-Dec-15 16:00N 33°38' E 130°20'0 0.1
2017-Dec-15 15:30N 33°38' E 130°20'0 0.0
2017-Dec-15 15:01N 33°38' E 130°20'0 0.0
2017-Dec-15 14:30N 33°38' E 130°20'0 0.0
2017-Dec-15 14:00N 33°38' E 130°20'0 0.1
2017-Dec-15 13:30N 33°38' E 130°20'4 7.5
2017-Dec-15 13:01N 33°40' E 130°17'510.7
2017-Dec-15 12:30N 33°45' E 130°19'612.0
2017-Dec-15 12:00N 33°50' E 130°24'611.7
2017-Dec-15 11:31N 33°54' E 130°28'611.6
2017-Dec-15 11:01N 33°57' E 130°34'612.1
2017-Dec-15 10:30N 33°58' E 130°42'612.6
2017-Dec-15 10:00N 33°58' E 130°49'612.3
2017-Dec-15 09:30N 33°55' E 130°56'612.2
2017-Dec-15 09:00N 33°58' E 131°02'713.1
2017-Dec-15 08:30N 33°55' E 131°09'612.9
2017-Dec-15 08:00N 33°52' E 131°16'713.1
2017-Dec-15 07:30N 33°52' E 131°24'713.2
2017-Dec-15 07:00N 33°50' E 131°31'713.3
2017-Dec-15 06:30N 33°49' E 131°39'713.2
2017-Dec-15 06:00N 33°48' E 131°47'713.0
2017-Dec-15 05:29N 33°46' E 131°55'612.8
2017-Dec-15 05:00N 33°46' E 132°02'713.2
2017-Dec-15 04:30N 33°50' E 132°09'812.6
2017-Dec-15 03:54N 33°57' E 132°09'1913.3
2017-Dec-15 02:30N 34°13' E 132°21'11 7.6
2017-Dec-15 01:00N 34°21' E 132°31'0 0.0
2017-Dec-15 00:30N 34°21' E 132°31'14 2.3
2017-Dec-14 18:29N 34°07' E 132°27'510.7
2017-Dec-14 18:00N 34°03' E 132°31'612.7
2017-Dec-14 17:31N 34°05' E 132°38'7412.4
2017-Dec-14 11:32N 34°27' E 134°03'1512.5
2017-Dec-14 10:23N 34°25' E 134°21'513.2
2017-Dec-14 10:00N 34°27' E 134°26'613.2
2017-Dec-14 09:31N 34°29' E 134°34'713.5
2017-Dec-14 09:01N 34°32' E 134°41'713.8
2017-Dec-14 08:30N 34°34' E 134°49'714.4
2017-Dec-14 08:00N 34°37' E 134°57'612.8
2017-Dec-14 07:30N 34°36' E 135°05'612.7
2017-Dec-14 07:00N 34°37' E 135°13'3 5.3
2017-Dec-14 06:30N 34°39' E 135°15'0 0.1
2017-Dec-14 06:00N 34°39' E 135°15'0 0.1
2017-Dec-14 05:31N 34°39' E 135°15'0 0.0
2017-Dec-14 05:01N 34°39' E 135°15'0 0.0
2017-Dec-14 04:30N 34°39' E 135°15'0 0.0
2017-Dec-14 04:01N 34°39' E 135°15'0 0.0
2017-Dec-14 03:30N 34°39' E 135°15'0 0.6
2017-Dec-14 03:01N 34°39' E 135°15'1 1.7
2017-Dec-14 02:30N 34°38' E 135°15'0 0.3
2017-Dec-14 02:01N 34°38' E 135°16'612.0
2017-Dec-14 01:31N 34°38' E 135°23'3 5.8
2017-Dec-14 01:00N 34°38' E 135°26'0 0.0
2017-Dec-14 00:30N 34°38' E 135°26'0 0.0
2017-Dec-14 00:00N 34°38' E 135°26'0 0.0
2017-Dec-13 23:30N 34°38' E 135°26'4 7.6
2017-Dec-13 23:00N 34°39' E 135°22'2 3.1
2017-Dec-13 22:31N 34°38' E 135°20'0 0.1
2017-Dec-13 22:00N 34°38' E 135°20'0 0.0
2017-Dec-13 21:31N 34°38' E 135°20'0 0.0
2017-Dec-13 21:00N 34°38' E 135°20'0 0.1
2017-Dec-13 20:31N 34°38' E 135°20'0 0.0
2017-Dec-13 20:00N 34°38' E 135°20'0 0.0
2017-Dec-13 19:31N 34°38' E 135°20'0 0.0
2017-Dec-13 19:01N 34°38' E 135°20'0 0.0
2017-Dec-13 18:31N 34°38' E 135°20'0 0.1
2017-Dec-13 18:00N 34°38' E 135°20'0 0.0
2017-Dec-13 17:30N 34°38' E 135°20'0 0.1
2017-Dec-13 17:01N 34°38' E 135°20'0 0.0
2017-Dec-13 16:30N 34°38' E 135°20'0 0.0
2017-Dec-13 16:01N 34°38' E 135°20'0 0.0
2017-Dec-13 15:31N 34°38' E 135°20'0 0.0
2017-Dec-13 15:01N 34°38' E 135°20'0 0.1
2017-Dec-13 14:31N 34°38' E 135°20'0 0.0
2017-Dec-13 14:01N 34°38' E 135°20'0 0.0
2017-Dec-13 13:30N 34°38' E 135°20'0 0.0
2017-Dec-13 13:00N 34°38' E 135°20'0 0.0
2017-Dec-13 12:31N 34°38' E 135°20'0 0.0
2017-Dec-13 12:01N 34°38' E 135°20'0 0.0
2017-Dec-13 11:31N 34°38' E 135°20'1 1.1
2017-Dec-13 11:01N 34°38' E 135°20'5 9.1
2017-Dec-13 10:31N 34°40' E 135°14'0 0.0
2017-Dec-13 10:01N 34°40' E 135°14'0 0.0
2017-Dec-13 09:30N 34°40' E 135°14'1 1.5
2017-Dec-13 09:00N 34°39' E 135°15'2 3.5
2017-Dec-13 08:31N 34°38' E 135°15'4 7.7
2017-Dec-13 08:01N 34°36' E 135°10'611.6
2017-Dec-13 07:31N 34°36' E 135°03'510.3
2017-Dec-13 07:00N 34°36' E 134°57'612.7
2017-Dec-13 06:30N 34°33' E 134°50'713.1
2017-Dec-13 06:00N 34°31' E 134°43'713.1
2017-Dec-13 05:30N 34°29' E 134°36'713.2
2017-Dec-13 05:00N 34°26' E 134°28'713.2
2017-Dec-13 04:30N 34°24' E 134°21'713.5
2017-Dec-13 03:59N 34°24' E 134°12'7512.8
2017-Dec-12 22:08N 34°04' E 132°45'213.6
2017-Dec-12 22:00N 34°03' E 132°43'713.8
2017-Dec-12 21:30N 33°60' E 132°36'713.8
2017-Dec-12 20:58N 33°55' E 132°29'713.9
2017-Dec-12 20:29N 33°51' E 132°23'913.6
2017-Dec-12 19:48N 33°49' E 132°12'613.7
2017-Dec-12 19:21N 33°46' E 132°05'813.1
2017-Dec-12 18:46N 33°45' E 131°56'413.2
2017-Dec-12 18:28N 33°46' E 131°52'613.0
2017-Dec-12 18:00N 33°47' E 131°45'612.9
2017-Dec-12 17:30N 33°49' E 131°37'712.9
2017-Dec-12 17:00N 33°50' E 131°29'612.9
2017-Dec-12 16:30N 33°51' E 131°22'612.9
2017-Dec-12 16:00N 33°53' E 131°14'713.1
2017-Dec-12 15:30N 33°55' E 131°07'713.3
2017-Dec-12 15:01N 33°59' E 131°00'713.2
2017-Dec-12 14:30N 33°55' E 130°54'612.9
2017-Dec-12 14:00N 33°58' E 130°47'713.2
2017-Dec-12 13:31N 33°57' E 130°39'713.2
2017-Dec-12 13:00N 33°56' E 130°31'612.3
2017-Dec-12 12:30N 33°52' E 130°26'612.9
2017-Dec-12 12:01N 33°47' E 130°21'612.7
2017-Dec-12 11:30N 33°42' E 130°16'611.8
2017-Dec-12 11:00N 33°38' E 130°21'3 6.6
2017-Dec-12 10:31N 33°39' E 130°25'0 0.0
2017-Dec-12 10:00N 33°39' E 130°25'0 0.0
2017-Dec-12 09:30N 33°39' E 130°25'0 0.0
2017-Dec-12 09:01N 33°39' E 130°25'0 0.0
2017-Dec-12 08:30N 33°39' E 130°25'0 0.0
2017-Dec-12 08:01N 33°39' E 130°25'0 0.0
2017-Dec-12 07:30N 33°39' E 130°25'0 0.0
2017-Dec-12 07:01N 33°39' E 130°25'0 0.0
2017-Dec-12 06:30N 33°39' E 130°25'0 0.0
2017-Dec-12 06:00N 33°39' E 130°25'0 0.6
2017-Dec-12 05:31N 33°39' E 130°24'0 0.0
2017-Dec-12 05:01N 33°39' E 130°24'0 0.0
2017-Dec-12 04:30N 33°39' E 130°24'0 0.0
2017-Dec-12 04:01N 33°39' E 130°24'0 0.0
2017-Dec-12 03:30N 33°39' E 130°24'0 0.0
2017-Dec-12 03:00N 33°39' E 130°24'0 0.0
2017-Dec-12 02:31N 33°39' E 130°24'0 0.0
2017-Dec-12 02:00N 33°39' E 130°24'0 0.3
2017-Dec-12 01:31N 33°39' E 130°24'3 5.2
2017-Dec-12 01:00N 33°38' E 130°22'1 2.1
2017-Dec-12 00:31N 33°38' E 130°20'0 0.1
2017-Dec-12 00:00N 33°38' E 130°21'0 0.1
2017-Dec-11 23:30N 33°38' E 130°20'0 0.1
2017-Dec-11 23:01N 33°38' E 130°21'3 5.9
2017-Dec-11 22:30N 33°39' E 130°24'1 1.3
2017-Dec-11 22:00N 33°39' E 130°24'0 0.0
2017-Dec-11 21:31N 33°39' E 130°24'0 0.0
2017-Dec-11 21:00N 33°39' E 130°24'0 0.0
2017-Dec-11 20:31N 33°39' E 130°24'0 0.0
2017-Dec-11 20:00N 33°39' E 130°24'0 0.0
2017-Dec-11 19:31N 33°39' E 130°24'0 0.0
2017-Dec-11 19:00N 33°39' E 130°24'0 0.0
2017-Dec-11 18:30N 33°39' E 130°24'0 0.0
2017-Dec-11 18:00N 33°39' E 130°24'0 0.0
2017-Dec-11 17:31N 33°39' E 130°24'0 0.0
2017-Dec-11 17:00N 33°39' E 130°24'0 0.0
2017-Dec-11 16:30N 33°39' E 130°24'0 0.0
2017-Dec-11 16:00N 33°39' E 130°24'0 0.0
2017-Dec-11 15:31N 33°39' E 130°24'0 0.0
2017-Dec-11 15:01N 33°39' E 130°24'0 0.0
2017-Dec-11 14:30N 33°39' E 130°24'0 0.0
2017-Dec-11 14:01N 33°39' E 130°24'0 0.0
2017-Dec-11 13:30N 33°39' E 130°24'0 0.0
2017-Dec-11 13:00N 33°39' E 130°24'0 0.0
2017-Dec-11 12:31N 33°39' E 130°24'0 0.0
2017-Dec-11 12:00N 33°39' E 130°24'0 0.0
2017-Dec-11 11:30N 33°39' E 130°24'0 0.0
2017-Dec-11 11:00N 33°39' E 130°24'0 0.0
2017-Dec-11 10:30N 33°39' E 130°24'0 0.0
2017-Dec-11 10:01N 33°39' E 130°24'0 0.0
2017-Dec-11 09:31N 33°39' E 130°24'0 0.0
2017-Dec-11 09:01N 33°39' E 130°24'0 0.0
2017-Dec-11 08:30N 33°39' E 130°24'0 0.0
2017-Dec-11 08:01N 33°39' E 130°24'0 0.0
2017-Dec-11 07:30N 33°39' E 130°24'1 2.6
2017-Dec-11 07:00N 33°39' E 130°23'4 7.8
2017-Dec-11 06:31N 33°39' E 130°18'4 8.7
2017-Dec-11 06:01N 33°43' E 130°18'510.6
2017-Dec-11 05:31N 33°47' E 130°22'611.1
2017-Dec-11 05:01N 33°51' E 130°26'611.9
2017-Dec-11 04:31N 33°56' E 130°30'5 9.8
2017-Dec-11 04:00N 33°57' E 130°36'510.0
2017-Dec-11 03:30N 33°58' E 130°42'611.7
2017-Dec-11 03:00N 33°58' E 130°49'611.3
2017-Dec-11 02:30N 33°54' E 130°55'5 9.4
2017-Dec-11 02:00N 33°58' E 130°58'4 7.0
2017-Dec-11 01:30N 33°58' E 131°02'612.5
2017-Dec-11 01:00N 33°54' E 131°09'612.2
2017-Dec-11 00:30N 33°52' E 131°16'612.5
2017-Dec-11 00:00N 33°54' E 131°23'613.0
2017-Dec-10 23:30N 33°58' E 131°29'5 9.4
2017-Dec-10 23:00N 34°01' E 131°34'0 0.0
2017-Dec-10 22:30N 34°01' E 131°34'0 0.0
2017-Dec-10 22:00N 34°01' E 131°34'0 0.0
2017-Dec-10 21:30N 34°01' E 131°34'0 0.0
2017-Dec-10 21:00N 34°01' E 131°34'0 0.0
2017-Dec-10 20:30N 34°01' E 131°34'0 0.0
2017-Dec-10 20:00N 34°01' E 131°34'0 0.0
2017-Dec-10 19:30N 34°01' E 131°34'0 0.0
2017-Dec-10 19:00N 34°01' E 131°34'0 0.0
2017-Dec-10 18:30N 34°01' E 131°34'0 0.0
2017-Dec-10 18:00N 34°01' E 131°34'0 0.0
2017-Dec-10 17:30N 34°01' E 131°34'0 0.0
2017-Dec-10 17:00N 34°01' E 131°34'0 0.0
2017-Dec-10 16:30N 34°01' E 131°34'0 0.0
2017-Dec-10 16:00N 34°01' E 131°34'0 0.0
2017-Dec-10 15:30N 34°01' E 131°34'0 0.0
2017-Dec-10 15:00N 34°01' E 131°34'0 0.0
2017-Dec-10 14:30N 34°01' E 131°34'0 0.0
2017-Dec-10 14:00N 34°01' E 131°34'0 0.0
2017-Dec-10 13:30N 34°01' E 131°34'0 0.0
2017-Dec-10 13:00N 34°01' E 131°34'0 0.0
2017-Dec-10 12:30N 34°01' E 131°34'0 0.0
2017-Dec-10 12:00N 34°01' E 131°34'0 0.0
2017-Dec-10 11:30N 34°01' E 131°34'0 0.0
2017-Dec-10 11:00N 34°01' E 131°34'0 0.0
2017-Dec-10 10:30N 34°01' E 131°34'0 0.0
2017-Dec-10 10:00N 34°01' E 131°34'0 0.0
2017-Dec-10 09:30N 34°01' E 131°34'0 0.0
2017-Dec-10 09:00N 34°01' E 131°34'0 0.0
2017-Dec-10 08:30N 34°01' E 131°34'2 4.0
2017-Dec-10 08:00N 33°59' E 131°34'612.4
2017-Dec-10 07:30N 33°58' E 131°42'611.0
2017-Dec-10 07:00N 34°02' E 131°47'1 1.1
2017-Dec-10 06:30N 34°02' E 131°47'0 0.5
2017-Dec-10 05:58N 34°03' E 131°47'0 0.2
2017-Dec-10 05:30N 34°02' E 131°47'510.7
2017-Dec-10 05:00N 33°58' E 131°43'713.3
2017-Dec-10 04:30N 33°57' E 131°35'713.0
2017-Dec-10 04:00N 33°55' E 131°28'612.9
2017-Dec-10 03:30N 33°53' E 131°20'612.3
2017-Dec-10 03:00N 33°53' E 131°13'612.5
2017-Dec-10 02:30N 33°56' E 131°06'510.2
2017-Dec-10 02:00N 33°58' E 131°01'0 0.0
2017-Dec-10 01:30N 33°58' E 131°01'0 0.0
2017-Dec-10 01:00N 33°58' E 131°01'0 0.0
2017-Dec-10 00:30N 33°58' E 131°01'0 0.3
2017-Dec-10 00:00N 33°58' E 131°01'0 0.0
2017-Dec-09 23:30N 33°58' E 131°01'0 0.0
2017-Dec-09 23:00N 33°58' E 131°01'0 0.0
2017-Dec-09 22:30N 33°58' E 131°01'0 0.0
2017-Dec-09 22:00N 33°58' E 131°01'0 0.0
2017-Dec-09 21:30N 33°58' E 131°01'0 0.0
2017-Dec-09 21:00N 33°58' E 131°01'0 0.0
2017-Dec-09 20:30N 33°58' E 131°01'0 0.0
2017-Dec-09 20:00N 33°58' E 131°01'0 0.0
2017-Dec-09 19:30N 33°58' E 131°01'0 0.0
2017-Dec-09 19:00N 33°58' E 131°01'0 0.0
2017-Dec-09 18:30N 33°58' E 131°01'0 0.0
2017-Dec-09 18:00N 33°58' E 131°01'0 0.0
2017-Dec-09 17:30N 33°58' E 131°01'0 0.0
2017-Dec-09 17:00N 33°58' E 131°01'0 0.0
2017-Dec-09 16:30N 33°58' E 131°01'0 0.0
2017-Dec-09 16:00N 33°58' E 131°01'0 0.0
2017-Dec-09 15:30N 33°58' E 131°01'0 0.0
2017-Dec-09 15:00N 33°58' E 131°01'0 0.0
2017-Dec-09 14:30N 33°58' E 131°01'0 0.0
2017-Dec-09 14:00N 33°58' E 131°01'0 0.0
2017-Dec-09 13:30N 33°58' E 131°01'0 0.0
2017-Dec-09 13:00N 33°58' E 131°01'0 0.0
2017-Dec-09 12:30N 33°58' E 131°01'0 0.0
2017-Dec-09 12:00N 33°58' E 131°01'0 0.0
2017-Dec-09 11:30N 33°58' E 131°01'0 0.0
2017-Dec-09 11:00N 33°58' E 131°01'0 0.0
2017-Dec-09 10:30N 33°58' E 131°01'0 0.0
2017-Dec-09 10:00N 33°58' E 131°01'0 0.0
2017-Dec-09 09:30N 33°58' E 131°01'0 0.0
2017-Dec-09 09:00N 33°58' E 131°01'0 0.0
2017-Dec-09 08:30N 33°58' E 131°01'0 0.0
2017-Dec-09 08:00N 33°58' E 131°01'0 0.0
2017-Dec-09 07:30N 33°58' E 131°01'0 0.0
2017-Dec-09 07:00N 33°58' E 131°01'0 0.0
2017-Dec-09 06:30N 33°58' E 131°01'0 0.0
2017-Dec-09 06:00N 33°58' E 131°01'0 0.0
2017-Dec-09 05:30N 33°58' E 131°01'0 0.0
2017-Dec-09 05:00N 33°58' E 131°01'0 0.0
2017-Dec-09 04:30N 33°58' E 131°01'0 0.0
2017-Dec-09 04:00N 33°58' E 131°01'0 0.0
2017-Dec-09 03:30N 33°58' E 131°01'0 0.0
2017-Dec-09 03:00N 33°58' E 131°01'0 0.0
2017-Dec-09 02:30N 33°58' E 131°01'0 0.0
2017-Dec-09 02:00N 33°58' E 131°01'0 0.0
2017-Dec-09 01:30N 33°58' E 131°01'0 0.0
2017-Dec-09 01:00N 33°58' E 131°01'0 0.0
2017-Dec-09 00:30N 33°58' E 131°01'0 0.0
2017-Dec-09 00:00N 33°58' E 131°01'0 0.0
2017-Dec-08 23:30N 33°58' E 131°01'0 0.2
2017-Dec-08 23:01N 33°58' E 131°01'3 6.2
2017-Dec-08 22:30N 33°56' E 131°03'0 0.1
2017-Dec-08 22:00N 33°56' E 131°03'0 0.0
2017-Dec-08 21:30N 33°56' E 131°03'0 0.0
2017-Dec-08 21:00N 33°56' E 131°03'0 0.0
2017-Dec-08 20:30N 33°56' E 131°03'0 0.0
2017-Dec-08 20:00N 33°56' E 131°03'0 0.0
2017-Dec-08 19:30N 33°56' E 131°03'0 0.0
2017-Dec-08 19:00N 33°56' E 131°03'0 0.0
2017-Dec-08 18:30N 33°56' E 131°03'0 0.0
2017-Dec-08 18:00N 33°56' E 131°03'0 0.0
2017-Dec-08 17:31N 33°56' E 131°03'0 0.0
2017-Dec-08 17:00N 33°56' E 131°03'0 0.0
2017-Dec-08 16:30N 33°56' E 131°03'0 0.1
2017-Dec-08 16:00N 33°56' E 131°03'0 0.0
2017-Dec-08 15:31N 33°56' E 131°03'0 0.2
2017-Dec-08 15:00N 33°56' E 131°03'0 0.0
2017-Dec-08 14:30N 33°56' E 131°03'0 0.2
2017-Dec-08 14:00N 33°56' E 131°03'0 0.1
2017-Dec-08 13:30N 33°56' E 131°03'0 0.0
2017-Dec-08 13:00N 33°56' E 131°03'0 0.0
2017-Dec-08 12:30N 33°56' E 131°03'0 0.0
2017-Dec-08 12:00N 33°56' E 131°03'0 0.0
2017-Dec-08 11:30N 33°56' E 131°03'0 0.0
2017-Dec-08 11:00N 33°56' E 131°03'0 0.1
2017-Dec-08 10:30N 33°56' E 131°03'0 0.1
2017-Dec-08 10:00N 33°56' E 131°03'0 0.1
2017-Dec-08 09:30N 33°56' E 131°03'0 0.0
2017-Dec-08 09:01N 33°56' E 131°03'4 7.8
2017-Dec-08 08:30N 33°54' E 131°07'612.2
2017-Dec-08 08:00N 33°52' E 131°14'612.4
2017-Dec-08 07:30N 33°51' E 131°21'612.2
2017-Dec-08 07:00N 33°50' E 131°29'611.6
2017-Dec-08 06:30N 33°48' E 131°36'611.3
2017-Dec-08 06:00N 33°47' E 131°42'611.4
2017-Dec-08 05:30N 33°46' E 131°49'1011.7
2017-Dec-08 04:39N 33°46' E 132°01'212.0
2017-Dec-08 04:28N 33°46' E 132°03'1211.3
2017-Dec-08 03:22N 33°57' E 132°10'611.7
2017-Dec-08 02:53N 34°01' E 132°15'512.9
2017-Dec-08 02:30N 34°06' E 132°17'612.8
2017-Dec-08 02:00N 34°12' E 132°20'611.9
2017-Dec-08 01:30N 34°17' E 132°23'611.9
2017-Dec-08 01:00N 34°20' E 132°29'1 2.9
2017-Dec-08 00:30N 34°21' E 132°31'0 0.0
2017-Dec-08 00:00N 34°21' E 132°31'0 0.0
2017-Dec-07 23:30N 34°21' E 132°31'3 5.2
2017-Dec-07 23:00N 34°19' E 132°29'0 0.0
2017-Dec-07 22:31N 34°19' E 132°29'0 0.0
2017-Dec-07 22:00N 34°19' E 132°29'0 0.1
2017-Dec-07 21:30N 34°19' E 132°29'0 0.0
2017-Dec-07 21:00N 34°19' E 132°29'0 0.0
2017-Dec-07 20:30N 34°19' E 132°29'0 0.1
2017-Dec-07 20:00N 34°19' E 132°29'0 0.1
2017-Dec-07 19:30N 34°19' E 132°29'2 4.0
2017-Dec-07 19:00N 34°17' E 132°30'612.7
2017-Dec-07 18:30N 34°11' E 132°30'5 9.4
2017-Dec-07 18:00N 34°07' E 132°26'510.5
2017-Dec-07 17:30N 34°03' E 132°31'611.3
2017-Dec-07 17:00N 34°04' E 132°37'8811.8
2017-Dec-07 09:34N 34°25' E 134°21'112.7
2017-Dec-07 09:30N 34°25' E 134°22'612.7
2017-Dec-07 08:59N 34°28' E 134°29'612.8
2017-Dec-07 08:30N 34°30' E 134°36'612.7
2017-Dec-07 08:00N 34°32' E 134°43'612.6
2017-Dec-07 07:30N 34°35' E 134°50'511.0
2017-Dec-07 07:00N 34°37' E 134°56'510.8
2017-Dec-07 06:30N 34°37' E 135°03'612.5
2017-Dec-07 06:01N 34°37' E 135°10'4 8.1
2017-Dec-07 05:30N 34°39' E 135°15'0 0.0
2017-Dec-07 05:00N 34°39' E 135°15'0 0.0
2017-Dec-07 04:30N 34°39' E 135°15'0 0.0
2017-Dec-07 04:00N 34°39' E 135°15'0 0.0
2017-Dec-07 03:30N 34°39' E 135°15'0 0.9
2017-Dec-07 03:01N 34°39' E 135°15'0 0.9
2017-Dec-07 02:31N 34°39' E 135°15'0 0.1
2017-Dec-07 02:01N 34°39' E 135°15'4 7.5
2017-Dec-07 01:30N 34°39' E 135°19'611.5
2017-Dec-07 01:00N 34°38' E 135°27'0 0.3
2017-Dec-07 00:31N 34°38' E 135°26'0 0.0
2017-Dec-07 00:00N 34°38' E 135°26'0 0.0
2017-Dec-06 23:31N 34°38' E 135°26'0 0.6
2017-Dec-06 23:01N 34°38' E 135°26'4 8.8
2017-Dec-06 22:30N 34°39' E 135°21'612.0
2017-Dec-06 22:00N 34°41' E 135°14'1 2.7
2017-Dec-06 21:30N 34°41' E 135°13'0 0.0
2017-Dec-06 21:01N 34°41' E 135°13'  
Track history (hours):
 
Tides and Currents Weather Stations Pressure Air Temp Water Temp Dewpoint Dewpoint Depression Visibility Wind Speed Wind Dir Waves Ship Positions

Tokiwa

Last reported at 2017-Dec-15 19:30 UTC. Time now 2017-Dec-15 19:49 UTC.
Position N 33°38' E 130°20'.

Length 78 m; draft 3.3 m.

Type: Cargo ship. MMSI: 431009243.

Date/timePositionNaut miles runAvg speedWind from/ knotsBaromVisibWave heightAir tempDewpointWater temp
2017-Dec-15 19:30N 33°38' E 130°20'0 0.0
2017-Dec-15 19:01N 33°38' E 130°20'0 0.0
2017-Dec-15 18:30N 33°38' E 130°20'0 0.0
2017-Dec-15 18:00N 33°38' E 130°20'0 0.0
2017-Dec-15 17:30N 33°38' E 130°20'0 0.0
2017-Dec-15 17:00N 33°38' E 130°20'0 0.0
2017-Dec-15 16:30N 33°38' E 130°20'0 0.0
2017-Dec-15 16:00N 33°38' E 130°20'0 0.1
2017-Dec-15 15:30N 33°38' E 130°20'0 0.0
2017-Dec-15 15:01N 33°38' E 130°20'0 0.0
2017-Dec-15 14:30N 33°38' E 130°20'0 0.0
2017-Dec-15 14:00N 33°38' E 130°20'0 0.1
2017-Dec-15 13:30N 33°38' E 130°20'4 7.5
2017-Dec-15 13:01N 33°40' E 130°17'510.7
2017-Dec-15 12:30N 33°45' E 130°19'612.0
2017-Dec-15 12:00N 33°50' E 130°24'611.7
2017-Dec-15 11:31N 33°54' E 130°28'611.6
2017-Dec-15 11:01N 33°57' E 130°34'612.1
2017-Dec-15 10:30N 33°58' E 130°42'612.6
2017-Dec-15 10:00N 33°58' E 130°49'612.3
2017-Dec-15 09:30N 33°55' E 130°56'612.2
2017-Dec-15 09:00N 33°58' E 131°02'713.1
2017-Dec-15 08:30N 33°55' E 131°09'612.9
2017-Dec-15 08:00N 33°52' E 131°16'713.1
2017-Dec-15 07:30N 33°52' E 131°24'713.2
2017-Dec-15 07:00N 33°50' E 131°31'713.3
2017-Dec-15 06:30N 33°49' E 131°39'713.2
2017-Dec-15 06:00N 33°48' E 131°47'713.0
2017-Dec-15 05:29N 33°46' E 131°55'612.8
2017-Dec-15 05:00N 33°46' E 132°02'713.2
2017-Dec-15 04:30N 33°50' E 132°09'812.6
2017-Dec-15 03:54N 33°57' E 132°09'1913.3
2017-Dec-15 02:30N 34°13' E 132°21'11 7.6
2017-Dec-15 01:00N 34°21' E 132°31'0 0.0
2017-Dec-15 00:30N 34°21' E 132°31'14 2.3
2017-Dec-14 18:29N 34°07' E 132°27'510.7
2017-Dec-14 18:00N 34°03' E 132°31'612.7
2017-Dec-14 17:31N 34°05' E 132°38'7412.4
2017-Dec-14 11:32N 34°27' E 134°03'1512.5
2017-Dec-14 10:23N 34°25' E 134°21'513.2
2017-Dec-14 10:00N 34°27' E 134°26'613.2
2017-Dec-14 09:31N 34°29' E 134°34'713.5
2017-Dec-14 09:01N 34°32' E 134°41'713.8
2017-Dec-14 08:30N 34°34' E 134°49'714.4
2017-Dec-14 08:00N 34°37' E 134°57'612.8
2017-Dec-14 07:30N 34°36' E 135°05'612.7
2017-Dec-14 07:00N 34°37' E 135°13'3 5.3
2017-Dec-14 06:30N 34°39' E 135°15'0 0.1
2017-Dec-14 06:00N 34°39' E 135°15'0 0.1
2017-Dec-14 05:31N 34°39' E 135°15'0 0.0
2017-Dec-14 05:01N 34°39' E 135°15'0 0.0
2017-Dec-14 04:30N 34°39' E 135°15'0 0.0
2017-Dec-14 04:01N 34°39' E 135°15'0 0.0
2017-Dec-14 03:30N 34°39' E 135°15'0 0.6
2017-Dec-14 03:01N 34°39' E 135°15'1 1.7
2017-Dec-14 02:30N 34°38' E 135°15'0 0.3
2017-Dec-14 02:01N 34°38' E 135°16'612.0
2017-Dec-14 01:31N 34°38' E 135°23'3 5.8
2017-Dec-14 01:00N 34°38' E 135°26'0 0.0
2017-Dec-14 00:30N 34°38' E 135°26'0 0.0
2017-Dec-14 00:00N 34°38' E 135°26'0 0.0
2017-Dec-13 23:30N 34°38' E 135°26'4 7.6
2017-Dec-13 23:00N 34°39' E 135°22'2 3.1
2017-Dec-13 22:31N 34°38' E 135°20'0 0.1
2017-Dec-13 22:00N 34°38' E 135°20'0 0.0
2017-Dec-13 21:31N 34°38' E 135°20'0 0.0
2017-Dec-13 21:00N 34°38' E 135°20'0 0.1
2017-Dec-13 20:31N 34°38' E 135°20'0 0.0
2017-Dec-13 20:00N 34°38' E 135°20'0 0.0
2017-Dec-13 19:31N 34°38' E 135°20'0 0.0
2017-Dec-13 19:01N 34°38' E 135°20'0 0.0
2017-Dec-13 18:31N 34°38' E 135°20'0 0.1
2017-Dec-13 18:00N 34°38' E 135°20'0 0.0
2017-Dec-13 17:30N 34°38' E 135°20'0 0.1
2017-Dec-13 17:01N 34°38' E 135°20'0 0.0
2017-Dec-13 16:30N 34°38' E 135°20'0 0.0
2017-Dec-13 16:01N 34°38' E 135°20'0 0.0
2017-Dec-13 15:31N 34°38' E 135°20'0 0.0
2017-Dec-13 15:01N 34°38' E 135°20'0 0.1
2017-Dec-13 14:31N 34°38' E 135°20'0 0.0
2017-Dec-13 14:01N 34°38' E 135°20'0 0.0
2017-Dec-13 13:30N 34°38' E 135°20'0 0.0
2017-Dec-13 13:00N 34°38' E 135°20'0 0.0
2017-Dec-13 12:31N 34°38' E 135°20'0 0.0
2017-Dec-13 12:01N 34°38' E 135°20'0 0.0
2017-Dec-13 11:31N 34°38' E 135°20'1 1.1
2017-Dec-13 11:01N 34°38' E 135°20'5 9.1
2017-Dec-13 10:31N 34°40' E 135°14'0 0.0
2017-Dec-13 10:01N 34°40' E 135°14'0 0.0
2017-Dec-13 09:30N 34°40' E 135°14'1 1.5
2017-Dec-13 09:00N 34°39' E 135°15'2 3.5
2017-Dec-13 08:31N 34°38' E 135°15'4 7.7
2017-Dec-13 08:01N 34°36' E 135°10'611.6
2017-Dec-13 07:31N 34°36' E 135°03'510.3
2017-Dec-13 07:00N 34°36' E 134°57'612.7
2017-Dec-13 06:30N 34°33' E 134°50'713.1
2017-Dec-13 06:00N 34°31' E 134°43'713.1
2017-Dec-13 05:30N 34°29' E 134°36'713.2
2017-Dec-13 05:00N 34°26' E 134°28'713.2
2017-Dec-13 04:30N 34°24' E 134°21'713.5
2017-Dec-13 03:59N 34°24' E 134°12'7512.8
2017-Dec-12 22:08N 34°04' E 132°45'213.6
2017-Dec-12 22:00N 34°03' E 132°43'713.8
2017-Dec-12 21:30N 33°60' E 132°36'713.8
2017-Dec-12 20:58N 33°55' E 132°29'713.9
2017-Dec-12 20:29N 33°51' E 132°23'913.6
2017-Dec-12 19:48N 33°49' E 132°12'613.7
2017-Dec-12 19:21N 33°46' E 132°05'813.1
2017-Dec-12 18:46N 33°45' E 131°56'413.2
2017-Dec-12 18:28N 33°46' E 131°52'613.0
2017-Dec-12 18:00N 33°47' E 131°45'612.9
2017-Dec-12 17:30N 33°49' E 131°37'712.9
2017-Dec-12 17:00N 33°50' E 131°29'612.9
2017-Dec-12 16:30N 33°51' E 131°22'612.9
2017-Dec-12 16:00N 33°53' E 131°14'713.1
2017-Dec-12 15:30N 33°55' E 131°07'713.3
2017-Dec-12 15:01N 33°59' E 131°00'713.2
2017-Dec-12 14:30N 33°55' E 130°54'612.9
2017-Dec-12 14:00N 33°58' E 130°47'713.2
2017-Dec-12 13:31N 33°57' E 130°39'713.2
2017-Dec-12 13:00N 33°56' E 130°31'612.3
2017-Dec-12 12:30N 33°52' E 130°26'612.9
2017-Dec-12 12:01N 33°47' E 130°21'612.7
2017-Dec-12 11:30N 33°42' E 130°16'611.8
2017-Dec-12 11:00N 33°38' E 130°21'3 6.6
2017-Dec-12 10:31N 33°39' E 130°25'0 0.0
2017-Dec-12 10:00N 33°39' E 130°25'0 0.0
2017-Dec-12 09:30N 33°39' E 130°25'0 0.0
2017-Dec-12 09:01N 33°39' E 130°25'0 0.0
2017-Dec-12 08:30N 33°39' E 130°25'0 0.0
2017-Dec-12 08:01N 33°39' E 130°25'0 0.0
2017-Dec-12 07:30N 33°39' E 130°25'0 0.0
2017-Dec-12 07:01N 33°39' E 130°25'0 0.0
2017-Dec-12 06:30N 33°39' E 130°25'0 0.0
2017-Dec-12 06:00N 33°39' E 130°25'0 0.6
2017-Dec-12 05:31N 33°39' E 130°24'0 0.0
2017-Dec-12 05:01N 33°39' E 130°24'0 0.0
2017-Dec-12 04:30N 33°39' E 130°24'0 0.0
2017-Dec-12 04:01N 33°39' E 130°24'0 0.0
2017-Dec-12 03:30N 33°39' E 130°24'0 0.0
2017-Dec-12 03:00N 33°39' E 130°24'0 0.0
2017-Dec-12 02:31N 33°39' E 130°24'0 0.0
2017-Dec-12 02:00N 33°39' E 130°24'0 0.3
2017-Dec-12 01:31N 33°39' E 130°24'3 5.2
2017-Dec-12 01:00N 33°38' E 130°22'1 2.1
2017-Dec-12 00:31N 33°38' E 130°20'0 0.1
2017-Dec-12 00:00N 33°38' E 130°21'0 0.1
2017-Dec-11 23:30N 33°38' E 130°20'0 0.1
2017-Dec-11 23:01N 33°38' E 130°21'3 5.9
2017-Dec-11 22:30N 33°39' E 130°24'1 1.3
2017-Dec-11 22:00N 33°39' E 130°24'0 0.0
2017-Dec-11 21:31N 33°39' E 130°24'0 0.0
2017-Dec-11 21:00N 33°39' E 130°24'0 0.0
2017-Dec-11 20:31N 33°39' E 130°24'0 0.0
2017-Dec-11 20:00N 33°39' E 130°24'0 0.0
2017-Dec-11 19:31N 33°39' E 130°24'0 0.0
2017-Dec-11 19:00N 33°39' E 130°24'0 0.0
2017-Dec-11 18:30N 33°39' E 130°24'0 0.0
2017-Dec-11 18:00N 33°39' E 130°24'0 0.0
2017-Dec-11 17:31N 33°39' E 130°24'0 0.0
2017-Dec-11 17:00N 33°39' E 130°24'0 0.0
2017-Dec-11 16:30N 33°39' E 130°24'0 0.0
2017-Dec-11 16:00N 33°39' E 130°24'0 0.0
2017-Dec-11 15:31N 33°39' E 130°24'0 0.0
2017-Dec-11 15:01N 33°39' E 130°24'0 0.0
2017-Dec-11 14:30N 33°39' E 130°24'0 0.0
2017-Dec-11 14:01N 33°39' E 130°24'0 0.0
2017-Dec-11 13:30N 33°39' E 130°24'0 0.0
2017-Dec-11 13:00N 33°39' E 130°24'0 0.0
2017-Dec-11 12:31N 33°39' E 130°24'0 0.0
2017-Dec-11 12:00N 33°39' E 130°24'0 0.0
2017-Dec-11 11:30N 33°39' E 130°24'0 0.0
2017-Dec-11 11:00N 33°39' E 130°24'0 0.0
2017-Dec-11 10:30N 33°39' E 130°24'0 0.0
2017-Dec-11 10:01N 33°39' E 130°24'0 0.0
2017-Dec-11 09:31N 33°39' E 130°24'0 0.0
2017-Dec-11 09:01N 33°39' E 130°24'0 0.0
2017-Dec-11 08:30N 33°39' E 130°24'0 0.0
2017-Dec-11 08:01N 33°39' E 130°24'0 0.0
2017-Dec-11 07:30N 33°39' E 130°24'1 2.6
2017-Dec-11 07:00N 33°39' E 130°23'4 7.8
2017-Dec-11 06:31N 33°39' E 130°18'4 8.7
2017-Dec-11 06:01N 33°43' E 130°18'510.6
2017-Dec-11 05:31N 33°47' E 130°22'611.1
2017-Dec-11 05:01N 33°51' E 130°26'611.9
2017-Dec-11 04:31N 33°56' E 130°30'5 9.8
2017-Dec-11 04:00N 33°57' E 130°36'510.0
2017-Dec-11 03:30N 33°58' E 130°42'611.7
2017-Dec-11 03:00N 33°58' E 130°49'611.3
2017-Dec-11 02:30N 33°54' E 130°55'5 9.4
2017-Dec-11 02:00N 33°58' E 130°58'4 7.0
2017-Dec-11 01:30N 33°58' E 131°02'612.5
2017-Dec-11 01:00N 33°54' E 131°09'612.2
2017-Dec-11 00:30N 33°52' E 131°16'612.5
2017-Dec-11 00:00N 33°54' E 131°23'613.0
2017-Dec-10 23:30N 33°58' E 131°29'5 9.4
2017-Dec-10 23:00N 34°01' E 131°34'0 0.0
2017-Dec-10 22:30N 34°01' E 131°34'0 0.0
2017-Dec-10 22:00N 34°01' E 131°34'0 0.0
2017-Dec-10 21:30N 34°01' E 131°34'0 0.0
2017-Dec-10 21:00N 34°01' E 131°34'0 0.0
2017-Dec-10 20:30N 34°01' E 131°34'0 0.0
2017-Dec-10 20:00N 34°01' E 131°34'0 0.0
2017-Dec-10 19:30N 34°01' E 131°34'0 0.0
2017-Dec-10 19:00N 34°01' E 131°34'0 0.0
2017-Dec-10 18:30N 34°01' E 131°34'0 0.0
2017-Dec-10 18:00N 34°01' E 131°34'0 0.0
2017-Dec-10 17:30N 34°01' E 131°34'0 0.0
2017-Dec-10 17:00N 34°01' E 131°34'0 0.0
2017-Dec-10 16:30N 34°01' E 131°34'0 0.0
2017-Dec-10 16:00N 34°01' E 131°34'0 0.0
2017-Dec-10 15:30N 34°01' E 131°34'0 0.0
2017-Dec-10 15:00N 34°01' E 131°34'0 0.0
2017-Dec-10 14:30N 34°01' E 131°34'0 0.0
2017-Dec-10 14:00N 34°01' E 131°34'0 0.0
2017-Dec-10 13:30N 34°01' E 131°34'0 0.0
2017-Dec-10 13:00N 34°01' E 131°34'0 0.0
2017-Dec-10 12:30N 34°01' E 131°34'0 0.0
2017-Dec-10 12:00N 34°01' E 131°34'0 0.0
2017-Dec-10 11:30N 34°01' E 131°34'0 0.0
2017-Dec-10 11:00N 34°01' E 131°34'0 0.0
2017-Dec-10 10:30N 34°01' E 131°34'0 0.0
2017-Dec-10 10:00N 34°01' E 131°34'0 0.0
2017-Dec-10 09:30N 34°01' E 131°34'0 0.0
2017-Dec-10 09:00N 34°01' E 131°34'0 0.0
2017-Dec-10 08:30N 34°01' E 131°34'2 4.0
2017-Dec-10 08:00N 33°59' E 131°34'612.4
2017-Dec-10 07:30N 33°58' E 131°42'611.0
2017-Dec-10 07:00N 34°02' E 131°47'1 1.1
2017-Dec-10 06:30N 34°02' E 131°47'0 0.5
2017-Dec-10 05:58N 34°03' E 131°47'0 0.2
2017-Dec-10 05:30N 34°02' E 131°47'510.7
2017-Dec-10 05:00N 33°58' E 131°43'713.3
2017-Dec-10 04:30N 33°57' E 131°35'713.0
2017-Dec-10 04:00N 33°55' E 131°28'612.9
2017-Dec-10 03:30N 33°53' E 131°20'612.3
2017-Dec-10 03:00N 33°53' E 131°13'612.5
2017-Dec-10 02:30N 33°56' E 131°06'510.2
2017-Dec-10 02:00N 33°58' E 131°01'0 0.0
2017-Dec-10 01:30N 33°58' E 131°01'0 0.0
2017-Dec-10 01:00N 33°58' E 131°01'0 0.0
2017-Dec-10 00:30N 33°58' E 131°01'0 0.3
2017-Dec-10 00:00N 33°58' E 131°01'0 0.0
2017-Dec-09 23:30N 33°58' E 131°01'0 0.0
2017-Dec-09 23:00N 33°58' E 131°01'0 0.0
2017-Dec-09 22:30N 33°58' E 131°01'0 0.0
2017-Dec-09 22:00N 33°58' E 131°01'0 0.0
2017-Dec-09 21:30N 33°58' E 131°01'0 0.0
2017-Dec-09 21:00N 33°58' E 131°01'0 0.0
2017-Dec-09 20:30N 33°58' E 131°01'0 0.0
2017-Dec-09 20:00N 33°58' E 131°01'0 0.0
2017-Dec-09 19:30N 33°58' E 131°01'0 0.0
2017-Dec-09 19:00N 33°58' E 131°01'0 0.0
2017-Dec-09 18:30N 33°58' E 131°01'0 0.0
2017-Dec-09 18:00N 33°58' E 131°01'0 0.0
2017-Dec-09 17:30N 33°58' E 131°01'0 0.0
2017-Dec-09 17:00N 33°58' E 131°01'0 0.0
2017-Dec-09 16:30N 33°58' E 131°01'0 0.0
2017-Dec-09 16:00N 33°58' E 131°01'0 0.0
2017-Dec-09 15:30N 33°58' E 131°01'0 0.0
2017-Dec-09 15:00N 33°58' E 131°01'0 0.0
2017-Dec-09 14:30N 33°58' E 131°01'0 0.0
2017-Dec-09 14:00N 33°58' E 131°01'0 0.0
2017-Dec-09 13:30N 33°58' E 131°01'0 0.0
2017-Dec-09 13:00N 33°58' E 131°01'0 0.0
2017-Dec-09 12:30N 33°58' E 131°01'0 0.0
2017-Dec-09 12:00N 33°58' E 131°01'0 0.0
2017-Dec-09 11:30N 33°58' E 131°01'0 0.0
2017-Dec-09 11:00N 33°58' E 131°01'0 0.0
2017-Dec-09 10:30N 33°58' E 131°01'0 0.0
2017-Dec-09 10:00N 33°58' E 131°01'0 0.0
2017-Dec-09 09:30N 33°58' E 131°01'0 0.0
2017-Dec-09 09:00N 33°58' E 131°01'0 0.0
2017-Dec-09 08:30N 33°58' E 131°01'0 0.0
2017-Dec-09 08:00N 33°58' E 131°01'0 0.0
2017-Dec-09 07:30N 33°58' E 131°01'0 0.0
2017-Dec-09 07:00N 33°58' E 131°01'0 0.0
2017-Dec-09 06:30N 33°58' E 131°01'0 0.0
2017-Dec-09 06:00N 33°58' E 131°01'0 0.0
2017-Dec-09 05:30N 33°58' E 131°01'0 0.0
2017-Dec-09 05:00N 33°58' E 131°01'0 0.0
2017-Dec-09 04:30N 33°58' E 131°01'0 0.0
2017-Dec-09 04:00N 33°58' E 131°01'0 0.0
2017-Dec-09 03:30N 33°58' E 131°01'0 0.0
2017-Dec-09 03:00N 33°58' E 131°01'0 0.0
2017-Dec-09 02:30N 33°58' E 131°01'0 0.0
2017-Dec-09 02:00N 33°58' E 131°01'0 0.0
2017-Dec-09 01:30N 33°58' E 131°01'0 0.0
2017-Dec-09 01:00N 33°58' E 131°01'0 0.0
2017-Dec-09 00:30N 33°58' E 131°01'0 0.0
2017-Dec-09 00:00N 33°58' E 131°01'0 0.0
2017-Dec-08 23:30N 33°58' E 131°01'0 0.2
2017-Dec-08 23:01N 33°58' E 131°01'3 6.2
2017-Dec-08 22:30N 33°56' E 131°03'0 0.1
2017-Dec-08 22:00N 33°56' E 131°03'0 0.0
2017-Dec-08 21:30N 33°56' E 131°03'0 0.0
2017-Dec-08 21:00N 33°56' E 131°03'0 0.0
2017-Dec-08 20:30N 33°56' E 131°03'0 0.0
2017-Dec-08 20:00N 33°56' E 131°03'0 0.0
2017-Dec-08 19:30N 33°56' E 131°03'0 0.0
2017-Dec-08 19:00N 33°56' E 131°03'0 0.0
2017-Dec-08 18:30N 33°56' E 131°03'0 0.0
2017-Dec-08 18:00N 33°56' E 131°03'0 0.0
2017-Dec-08 17:31N 33°56' E 131°03'0 0.0
2017-Dec-08 17:00N 33°56' E 131°03'0 0.0
2017-Dec-08 16:30N 33°56' E 131°03'0 0.1
2017-Dec-08 16:00N 33°56' E 131°03'0 0.0
2017-Dec-08 15:31N 33°56' E 131°03'0 0.2
2017-Dec-08 15:00N 33°56' E 131°03'0 0.0
2017-Dec-08 14:30N 33°56' E 131°03'0 0.2
2017-Dec-08 14:00N 33°56' E 131°03'0 0.1
2017-Dec-08 13:30N 33°56' E 131°03'0 0.0
2017-Dec-08 13:00N 33°56' E 131°03'0 0.0
2017-Dec-08 12:30N 33°56' E 131°03'0 0.0
2017-Dec-08 12:00N 33°56' E 131°03'0 0.0
2017-Dec-08 11:30N 33°56' E 131°03'0 0.0
2017-Dec-08 11:00N 33°56' E 131°03'0 0.1
2017-Dec-08 10:30N 33°56' E 131°03'0 0.1
2017-Dec-08 10:00N 33°56' E 131°03'0 0.1
2017-Dec-08 09:30N 33°56' E 131°03'0 0.0
2017-Dec-08 09:01N 33°56' E 131°03'4 7.8
2017-Dec-08 08:30N 33°54' E 131°07'612.2
2017-Dec-08 08:00N 33°52' E 131°14'612.4
2017-Dec-08 07:30N 33°51' E 131°21'612.2
2017-Dec-08 07:00N 33°50' E 131°29'611.6
2017-Dec-08 06:30N 33°48' E 131°36'611.3
2017-Dec-08 06:00N 33°47' E 131°42'611.4
2017-Dec-08 05:30N 33°46' E 131°49'1011.7
2017-Dec-08 04:39N 33°46' E 132°01'212.0
2017-Dec-08 04:28N 33°46' E 132°03'1211.3
2017-Dec-08 03:22N 33°57' E 132°10'611.7
2017-Dec-08 02:53N 34°01' E 132°15'512.9
2017-Dec-08 02:30N 34°06' E 132°17'612.8
2017-Dec-08 02:00N 34°12' E 132°20'611.9
2017-Dec-08 01:30N 34°17' E 132°23'611.9
2017-Dec-08 01:00N 34°20' E 132°29'1 2.9
2017-Dec-08 00:30N 34°21' E 132°31'0 0.0
2017-Dec-08 00:00N 34°21' E 132°31'0 0.0
2017-Dec-07 23:30N 34°21' E 132°31'3 5.2
2017-Dec-07 23:00N 34°19' E 132°29'0 0.0
2017-Dec-07 22:31N 34°19' E 132°29'0 0.0
2017-Dec-07 22:00N 34°19' E 132°29'0 0.1
2017-Dec-07 21:30N 34°19' E 132°29'0 0.0
2017-Dec-07 21:00N 34°19' E 132°29'0 0.0
2017-Dec-07 20:30N 34°19' E 132°29'0 0.1
2017-Dec-07 20:00N 34°19' E 132°29'0 0.1
2017-Dec-07 19:30N 34°19' E 132°29'2 4.0
2017-Dec-07 19:00N 34°17' E 132°30'612.7
2017-Dec-07 18:30N 34°11' E 132°30'5 9.4
2017-Dec-07 18:00N 34°07' E 132°26'510.5
2017-Dec-07 17:30N 34°03' E 132°31'611.3
2017-Dec-07 17:00N 34°04' E 132°37'8811.8
2017-Dec-07 09:34N 34°25' E 134°21'112.7
2017-Dec-07 09:30N 34°25' E 134°22'612.7
2017-Dec-07 08:59N 34°28' E 134°29'612.8
2017-Dec-07 08:30N 34°30' E 134°36'612.7
2017-Dec-07 08:00N 34°32' E 134°43'612.6
2017-Dec-07 07:30N 34°35' E 134°50'511.0
2017-Dec-07 07:00N 34°37' E 134°56'510.8
2017-Dec-07 06:30N 34°37' E 135°03'612.5
2017-Dec-07 06:01N 34°37' E 135°10'4 8.1
2017-Dec-07 05:30N 34°39' E 135°15'0 0.0
2017-Dec-07 05:00N 34°39' E 135°15'0 0.0
2017-Dec-07 04:30N 34°39' E 135°15'0 0.0
2017-Dec-07 04:00N 34°39' E 135°15'0 0.0
2017-Dec-07 03:30N 34°39' E 135°15'0 0.9
2017-Dec-07 03:01N 34°39' E 135°15'0 0.9
2017-Dec-07 02:31N 34°39' E 135°15'0 0.1
2017-Dec-07 02:01N 34°39' E 135°15'4 7.5
2017-Dec-07 01:30N 34°39' E 135°19'611.5
2017-Dec-07 01:00N 34°38' E 135°27'0 0.3
2017-Dec-07 00:31N 34°38' E 135°26'0 0.0
2017-Dec-07 00:00N 34°38' E 135°26'0 0.0
2017-Dec-06 23:31N 34°38' E 135°26'0 0.6
2017-Dec-06 23:01N 34°38' E 135°26'4 8.8
2017-Dec-06 22:30N 34°39' E 135°21'612.0
2017-Dec-06 22:00N 34°41' E 135°14'1 2.7
2017-Dec-06 21:30N 34°41' E 135°13'0 0.0
2017-Dec-06 21:01N 34°41' E 135°13'  

Dump ship's entire track history